Aviation Digital Data Service (ADDS)

Output produced by METARs form (1314 UTC 25 September 2018)
found at http://www.aviationweather.gov/metar/data/
 
UTSB 251300Z 33008KT CAVOK 26/06 Q1014 R01/CLRD70 NOSIG
TAF UTSB 251100Z 2512/2612 VRB03KT 7000 NSC 
     TEMPO 2512/2523 35012KT
       
UTSK 251300Z 30004KT CAVOK 26/05 Q1015 R16/CLRD70
TAF UTSK 251159Z 2513/2522 34010KT CAVOK 
     TEMPO 2513/2522 22010G20KT SCT066CB BKN100
       
UTSS 251300Z 11008KT 9999 NSC 23/06 Q1016 R09/CLRD70 NOSIG
TAF UTSS 251100Z 2512/2612 31010KT 9999 NSC 
     TEMPO 2514/2524 23010G20KT SCT066CB BKN100
       
UTST 251300Z 30004KT CAVOK 26/02 Q1013 R88/CLRD70 NOSIG
TAF UTST 251100Z 2512/2612 VRB06KT 6000 NSC 
     TEMPO 2512/2521 26008G18KT SCT060CB BKN100
       
UTNU 251300Z 04002KT CAVOK 27/06 Q1016 R31/CLRD70 NOSIG
TAF UTNU 251100Z 2512/2612 04010G20KT 8000 NSC 
     TEMPO 2512/2518 10008KT
       
UTTT 251300Z 29006KT CAVOK 25/03 Q1016 R26L/CLRD70 NOSIG
TAF UTTT 251100Z 2512/2612 35010KT 7000 NSC 
     TEMPO 2515/2524 06010G20KT